createdAt,value
2023-02-04T00:02:07.601Z,29.52
2023-02-04T00:04:34.232Z,26.98
2023-02-04T00:07:00.853Z,27.55
2023-02-04T00:09:27.587Z,27.55
2023-02-04T00:11:54.189Z,30.10
2023-02-04T00:14:20.824Z,26.35
2023-02-04T00:16:47.444Z,27.63
2023-02-04T00:19:14.082Z,27.58
2023-02-04T00:21:40.690Z,22.15
2023-02-04T00:24:07.373Z,17.45
2023-02-04T00:26:33.991Z,27.40
2023-02-04T00:29:00.615Z,21.48
2023-02-04T00:31:27.378Z,27.90
2023-02-04T00:33:54.154Z,22.08
2023-02-04T00:36:20.859Z,23.52
2023-02-04T00:38:47.507Z,28.17
2023-02-04T00:41:14.199Z,27.35
2023-02-04T00:43:40.963Z,24.48
2023-02-04T00:46:07.870Z,21.67
2023-02-04T00:48:35.557Z,16.70
2023-02-04T00:51:02.565Z,23.38
2023-02-04T00:53:29.289Z,20.00
2023-02-04T00:55:57.459Z,27.10
2023-02-04T00:58:24.117Z,18.77
2023-02-04T01:00:50.866Z,25.67
2023-02-04T01:03:17.733Z,34.88
2023-02-04T01:05:44.360Z,19.50
2023-02-04T01:08:11.451Z,35.38
2023-02-04T01:10:38.144Z,25.17
2023-02-04T01:13:04.862Z,21.95
2023-02-04T01:15:31.658Z,24.25
2023-02-04T01:17:58.296Z,27.15
2023-02-04T01:20:24.966Z,23.85
2023-02-04T01:22:51.611Z,23.58
2023-02-04T01:25:19.425Z,31.13
2023-02-04T01:27:46.156Z,23.17
2023-02-04T01:30:14.974Z,28.27
2023-02-04T01:32:41.824Z,26.75
2023-02-04T01:35:08.710Z,28.80
2023-02-04T01:37:35.346Z,27.42
2023-02-04T01:40:02.324Z,29.40
2023-02-04T01:42:29.061Z,22.75
2023-02-04T01:44:55.741Z,28.25
2023-02-04T01:47:23.532Z,33.55
2023-02-04T01:49:52.859Z,25.92
2023-02-04T01:52:20.053Z,25.73
2023-02-04T01:54:46.936Z,27.52
2023-02-04T01:57:16.231Z,24.42
2023-02-04T01:59:47.347Z,23.23
2023-02-04T02:02:43.258Z,32.75
2023-02-04T02:05:13.134Z,25.15
2023-02-04T02:07:39.995Z,29.77
2023-02-04T02:10:09.554Z,26.90
2023-02-04T02:12:36.883Z,22.70
2023-02-04T02:15:04.237Z,27.92
2023-02-04T02:17:31.261Z,21.45
2023-02-04T02:19:57.953Z,21.42
2023-02-04T02:22:37.389Z,26.92
2023-02-04T02:25:13.293Z,24.95
2023-02-04T02:27:40.347Z,26.98
2023-02-04T02:30:09.482Z,28.58
2023-02-04T02:32:36.756Z,25.85
2023-02-04T02:35:05.099Z,21.02
2023-02-04T02:37:32.051Z,23.55
2023-02-04T02:39:58.809Z,23.75
2023-02-04T02:42:25.878Z,37.30
2023-02-04T02:44:54.051Z,17.30
2023-02-04T02:47:22.610Z,34.10
2023-02-04T02:49:51.454Z,23.15
2023-02-04T02:52:18.182Z,28.05
2023-02-04T02:54:45.194Z,23.90
2023-02-04T02:57:18.714Z,23.65
2023-02-04T02:59:46.023Z,26.55
2023-02-04T03:02:17.302Z,29.60
2023-02-04T03:04:49.520Z,23.48
2023-02-04T03:07:19.583Z,31.27
2023-02-04T03:09:46.361Z,27.48
2023-02-04T03:12:13.167Z,25.38
2023-02-04T03:14:40.251Z,22.85
2023-02-04T03:17:10.483Z,27.17
2023-02-04T03:19:38.801Z,22.75
2023-02-04T03:22:07.302Z,22.80
2023-02-04T03:24:34.958Z,28.08
2023-02-04T03:27:03.764Z,28.55
2023-02-04T03:29:30.517Z,30.73
2023-02-04T03:31:59.882Z,26.92
2023-02-04T03:34:26.739Z,19.90
2023-02-04T03:36:53.402Z,34.63
2023-02-04T03:39:20.077Z,30.60
2023-02-04T03:41:46.768Z,31.98
2023-02-04T03:44:13.420Z,28.73
2023-02-04T03:46:40.037Z,21.85
2023-02-04T03:49:06.655Z,22.73
2023-02-04T03:51:33.318Z,17.67
2023-02-04T03:53:59.926Z,24.33
2023-02-04T03:56:26.582Z,26.60
2023-02-04T03:58:53.345Z,24.63
2023-02-04T04:01:20.045Z,33.65
2023-02-04T04:03:46.842Z,29.10
2023-02-04T04:06:13.523Z,27.58
2023-02-04T04:08:40.173Z,24.27
2023-02-04T04:11:06.876Z,29.40
2023-02-04T04:13:33.672Z,37.50
2023-02-04T04:16:00.358Z,30.77
2023-02-04T04:18:27.077Z,26.05
2023-02-04T04:20:53.681Z,34.90
2023-02-04T04:23:20.444Z,27.20
2023-02-04T04:25:47.115Z,37.55
2023-02-04T04:28:13.884Z,27.35
2023-02-04T04:30:40.717Z,17.48
2023-02-04T04:33:07.659Z,31.00
2023-02-04T04:35:34.742Z,22.95
2023-02-04T04:38:02.418Z,24.73
2023-02-04T04:40:29.153Z,29.33
2023-02-04T04:42:56.389Z,22.85
2023-02-04T04:45:22.981Z,29.88
2023-02-04T04:47:49.682Z,28.60
2023-02-04T04:50:16.723Z,39.80
2023-02-04T04:52:43.372Z,30.73
2023-02-04T04:55:10.365Z,29.75
2023-02-04T04:57:37.071Z,42.25
2023-02-04T05:00:05.209Z,25.67
2023-02-04T05:02:31.936Z,25.23
2023-02-04T05:04:59.192Z,23.67
2023-02-04T05:07:25.847Z,24.23
2023-02-04T05:09:52.486Z,24.77
2023-02-04T05:12:19.061Z,30.27
2023-02-04T05:14:45.681Z,23.90
2023-02-04T05:17:12.509Z,25.33
2023-02-04T05:19:39.151Z,23.10
2023-02-04T05:22:05.753Z,23.27
2023-02-04T05:24:32.374Z,32.83
2023-02-04T05:26:58.981Z,21.80
2023-02-04T05:29:25.700Z,24.45
2023-02-04T05:31:52.349Z,21.85
2023-02-04T05:34:19.044Z,33.65
2023-02-04T05:36:45.622Z,25.95
2023-02-04T05:39:12.245Z,20.30
2023-02-04T05:41:39.521Z,25.05
2023-02-04T05:44:06.249Z,26.00
2023-02-04T05:46:32.918Z,24.50
2023-02-04T05:48:59.513Z,27.10
2023-02-04T05:51:26.084Z,23.83
2023-02-04T05:53:52.678Z,22.65
2023-02-04T05:56:19.269Z,32.03
2023-02-04T05:58:46.235Z,40.05
2023-02-04T06:01:12.830Z,28.27
2023-02-04T06:03:39.565Z,32.78
2023-02-04T06:06:06.462Z,31.77
2023-02-04T06:08:33.085Z,26.73
2023-02-04T06:10:59.719Z,27.40
2023-02-04T06:13:26.332Z,27.23
2023-02-04T06:15:52.967Z,23.15
2023-02-04T06:18:19.638Z,33.58
2023-02-04T06:20:46.203Z,34.55
2023-02-04T06:23:12.915Z,34.70
2023-02-04T06:25:39.519Z,34.63
2023-02-04T06:28:06.177Z,22.08
2023-02-04T06:30:33.336Z,25.27
2023-02-04T06:33:00.205Z,33.30
2023-02-04T06:35:26.788Z,24.23
2023-02-04T06:37:53.392Z,29.35
2023-02-04T06:40:20.029Z,31.70
2023-02-04T06:42:47.127Z,38.04
2023-02-04T06:45:13.747Z,28.08
2023-02-04T06:47:40.370Z,33.30
2023-02-04T06:50:07.418Z,27.63
2023-02-04T06:52:34.044Z,30.45
2023-02-04T06:55:00.743Z,26.05
2023-02-04T06:57:27.322Z,36.38
2023-02-04T06:59:53.974Z,31.30
2023-02-04T07:02:20.572Z,38.85
2023-02-04T07:04:47.873Z,28.15
2023-02-04T07:07:14.674Z,39.92
2023-02-04T07:09:42.470Z,31.67
2023-02-04T07:12:09.078Z,26.23
2023-02-04T07:14:35.683Z,22.85
2023-02-04T07:17:02.455Z,35.85
2023-02-04T07:19:29.133Z,33.75
2023-02-04T07:21:56.925Z,27.60
2023-02-04T07:24:24.136Z,34.88
2023-02-04T07:26:51.490Z,28.60
2023-02-04T07:29:25.613Z,36.67
2023-02-04T07:31:53.248Z,33.03
2023-02-04T07:34:20.407Z,31.73
2023-02-04T07:36:47.338Z,39.15
2023-02-04T07:39:14.071Z,43.45
2023-02-04T07:41:40.725Z,36.95
2023-02-04T07:44:07.528Z,28.70
2023-02-04T07:46:34.253Z,51.13
2023-02-04T07:49:01.169Z,42.47
2023-02-04T07:51:28.080Z,46.95
2023-02-04T07:53:56.195Z,41.35
2023-02-04T07:56:23.193Z,32.22
2023-02-04T07:58:49.927Z,40.38
2023-02-04T08:01:16.920Z,33.00
2023-02-04T08:03:43.837Z,31.83
2023-02-04T08:06:11.649Z,36.33
2023-02-04T08:08:38.323Z,39.05
2023-02-04T08:11:05.225Z,35.75
2023-02-04T08:13:31.901Z,43.75
2023-02-04T08:15:58.790Z,35.80
2023-02-04T08:18:25.494Z,44.85
2023-02-04T08:20:52.383Z,45.28
2023-02-04T08:23:19.219Z,44.65
2023-02-04T08:25:45.880Z,46.70
2023-02-04T08:28:12.602Z,47.95
2023-02-04T08:30:39.360Z,54.10
2023-02-04T08:33:06.163Z,50.53
2023-02-04T08:35:32.787Z,44.05
2023-02-04T08:37:59.394Z,51.72
2023-02-04T08:40:26.084Z,50.63
2023-02-04T08:42:52.832Z,44.80
2023-02-04T08:45:19.443Z,37.40
2023-02-04T08:47:46.247Z,43.92
2023-02-04T08:50:13.011Z,38.65
2023-02-04T08:52:39.663Z,44.92
2023-02-04T08:55:06.729Z,51.25
2023-02-04T08:57:34.899Z,37.97
2023-02-04T09:00:01.719Z,49.00
2023-02-04T09:02:28.480Z,44.47
2023-02-04T09:04:55.241Z,51.90
2023-02-04T09:07:22.382Z,45.25
2023-02-04T09:09:49.088Z,46.72
2023-02-04T09:12:15.783Z,45.15
2023-02-04T09:14:42.396Z,46.67
2023-02-04T09:17:09.100Z,47.08
2023-02-04T09:19:35.731Z,49.17
2023-02-04T09:22:02.478Z,47.03
2023-02-04T09:24:29.248Z,42.47
2023-02-04T09:26:55.897Z,46.13
2023-02-04T09:29:22.606Z,41.25
2023-02-04T09:31:49.346Z,43.45
2023-02-04T09:34:16.200Z,49.90
2023-02-04T09:36:42.890Z,42.80
2023-02-04T09:39:12.642Z,36.60
2023-02-04T09:41:40.504Z,44.20
2023-02-04T09:44:16.839Z,43.53
2023-02-04T09:46:52.192Z,47.92
2023-02-04T09:49:19.037Z,33.38
2023-02-04T09:51:47.793Z,43.83
2023-02-04T09:54:18.609Z,45.58
2023-02-04T09:56:46.210Z,36.17
2023-02-04T09:59:14.089Z,40.78
2023-02-04T10:01:41.280Z,44.72
2023-02-04T10:04:15.307Z,42.20
2023-02-04T10:06:43.926Z,53.40
2023-02-04T10:09:15.964Z,50.20
2023-02-04T10:11:47.377Z,40.00
2023-02-04T10:14:18.037Z,45.00
2023-02-04T10:16:51.078Z,45.88
2023-02-04T10:19:17.805Z,43.50
2023-02-04T10:21:45.960Z,45.30
2023-02-04T10:24:29.781Z,40.90
2023-02-04T10:27:08.424Z,43.60
2023-02-04T10:29:35.198Z,32.50
2023-02-04T10:32:01.813Z,40.33
2023-02-04T10:34:39.632Z,40.45
2023-02-04T10:37:22.705Z,37.78
2023-02-04T10:39:49.971Z,42.58
2023-02-04T10:42:24.244Z,45.58
2023-02-04T10:44:51.344Z,42.30
2023-02-04T10:47:23.750Z,46.00
2023-02-04T10:50:17.764Z,37.78
2023-02-04T10:52:47.357Z,46.53
2023-02-04T10:55:18.529Z,38.45
2023-02-04T10:57:47.537Z,38.35
2023-02-04T11:00:21.518Z,37.83
2023-02-04T11:02:58.938Z,45.10
2023-02-04T11:05:31.150Z,36.47
2023-02-04T11:07:57.940Z,43.45
2023-02-04T11:10:30.842Z,39.30
2023-02-04T11:12:57.755Z,42.08
2023-02-04T11:15:41.227Z,39.58
2023-02-04T11:18:11.080Z,49.38
2023-02-04T11:20:39.975Z,40.28
2023-02-04T11:23:29.715Z,42.22
2023-02-04T11:26:19.246Z,46.33
2023-02-04T11:28:48.093Z,48.67
2023-02-04T11:31:29.393Z,33.40
2023-02-04T11:34:11.429Z,47.83
2023-02-04T11:36:59.625Z,40.17
2023-02-04T11:39:34.011Z,39.35
2023-02-04T11:42:01.034Z,39.33
2023-02-04T11:44:28.521Z,43.60
2023-02-04T11:46:56.640Z,36.08
2023-02-04T11:49:25.542Z,36.35
2023-02-04T11:52:08.744Z,42.15
2023-02-04T11:54:36.500Z,37.28
2023-02-04T11:57:03.797Z,42.95
2023-02-04T11:59:30.670Z,36.13
2023-02-04T12:02:19.035Z,39.03
2023-02-04T12:04:57.519Z,40.30
2023-02-04T12:07:27.753Z,35.55
2023-02-04T12:09:59.447Z,33.63
2023-02-04T12:12:41.338Z,40.17
2023-02-04T12:15:20.868Z,35.75
2023-02-04T12:17:59.858Z,33.28
2023-02-04T12:20:32.578Z,39.90
2023-02-04T12:23:04.234Z,33.03
2023-02-04T12:25:32.084Z,39.30
2023-02-04T12:28:02.338Z,35.28
2023-02-04T12:30:57.833Z,28.48
2023-02-04T12:33:25.431Z,30.27
2023-02-04T12:35:53.657Z,37.03
2023-02-04T12:42:07.237Z,36.10
2023-02-04T12:44:35.575Z,27.70
2023-02-04T12:47:02.402Z,33.97
2023-02-04T12:49:29.161Z,28.35
2023-02-04T12:51:59.318Z,33.63
2023-02-04T12:54:26.088Z,35.03
2023-02-04T12:56:53.441Z,34.97
2023-02-04T12:59:20.085Z,34.92
2023-02-04T13:01:46.745Z,30.92
2023-02-04T13:04:13.601Z,32.28
2023-02-04T13:06:40.597Z,35.42
2023-02-04T13:09:07.778Z,26.45
2023-02-04T13:11:34.530Z,44.15
2023-02-04T13:14:01.340Z,34.40
2023-02-04T13:16:28.014Z,28.65
2023-02-04T13:18:55.198Z,31.35
2023-02-04T13:21:22.108Z,34.55
2023-02-04T13:23:49.053Z,36.53
2023-02-04T13:26:15.793Z,25.23
2023-02-04T13:28:42.455Z,30.40
2023-02-04T13:31:09.127Z,27.67
2023-02-04T13:33:36.141Z,27.48
2023-02-04T13:36:03.132Z,25.65
2023-02-04T13:38:29.784Z,30.80
2023-02-04T13:40:56.435Z,30.20
2023-02-04T13:43:23.703Z,37.42
2023-02-04T13:45:50.534Z,30.63
2023-02-04T13:48:17.448Z,30.15
2023-02-04T13:50:44.345Z,24.92
2023-02-04T13:53:11.116Z,25.27
2023-02-04T13:55:37.980Z,26.60
2023-02-04T13:58:05.121Z,26.25
2023-02-04T14:00:32.352Z,39.75
2023-02-04T14:02:59.734Z,31.40
2023-02-04T14:05:26.433Z,26.08
2023-02-04T14:07:53.167Z,35.60
2023-02-04T14:10:22.904Z,16.90
2023-02-04T14:12:49.718Z,35.60
2023-02-04T14:15:16.922Z,21.95
2023-02-04T14:17:43.790Z,26.30
2023-02-04T14:20:11.137Z,28.60
2023-02-04T14:22:38.491Z,22.67
2023-02-04T14:25:05.768Z,32.28
2023-02-04T14:27:32.844Z,21.65
2023-02-04T14:29:59.805Z,27.77
2023-02-04T14:32:26.546Z,30.33
2023-02-04T14:34:53.684Z,29.13
2023-02-04T14:37:20.448Z,31.90
2023-02-04T14:39:47.069Z,24.98
2023-02-04T14:42:13.671Z,30.65
2023-02-04T14:44:40.331Z,23.58
2023-02-04T14:47:06.976Z,24.73
2023-02-04T14:49:36.905Z,33.78
2023-02-04T14:52:04.414Z,25.80
2023-02-04T14:54:31.092Z,20.73
2023-02-04T14:56:57.817Z,30.63
2023-02-04T14:59:24.496Z,24.40
2023-02-04T15:01:51.157Z,29.05
2023-02-04T15:04:19.055Z,35.45
2023-02-04T15:06:46.090Z,26.25
2023-02-04T15:09:12.800Z,32.45
2023-02-04T15:11:39.520Z,29.10
2023-02-04T15:14:06.137Z,21.73
2023-02-04T15:16:33.040Z,25.42
2023-02-04T15:18:59.751Z,24.98
2023-02-04T15:21:27.266Z,23.55
2023-02-04T15:23:53.998Z,27.20
2023-02-04T15:26:20.753Z,29.73
2023-02-04T15:28:47.363Z,25.42
2023-02-04T15:31:14.255Z,24.35
2023-02-04T15:33:41.072Z,28.55
2023-02-04T15:36:07.999Z,25.45
2023-02-04T15:38:34.893Z,21.45
2023-02-04T15:41:03.163Z,25.83
2023-02-04T15:43:29.993Z,30.65
2023-02-04T15:45:57.185Z,24.55
2023-02-04T15:48:28.139Z,21.30
2023-02-04T15:50:55.624Z,25.77
2023-02-04T15:53:22.791Z,28.48
2023-02-04T15:55:49.478Z,27.63
2023-02-04T15:58:16.393Z,27.50
2023-02-04T16:00:43.205Z,26.77
2023-02-04T16:03:09.938Z,24.90
2023-02-04T16:05:36.812Z,32.38
2023-02-04T16:08:03.502Z,27.55
2023-02-04T16:10:30.234Z,32.75
2023-02-04T16:12:58.750Z,25.92
2023-02-04T16:15:25.539Z,33.38
2023-02-04T16:17:52.228Z,30.40
2023-02-04T16:20:19.108Z,21.13
2023-02-04T16:22:45.718Z,32.30
2023-02-04T16:25:12.366Z,28.05
2023-02-04T16:27:39.028Z,38.33
2023-02-04T16:30:06.304Z,36.95
2023-02-04T16:32:33.718Z,37.50
2023-02-04T16:35:02.279Z,21.60
2023-02-04T16:37:29.256Z,39.75
2023-02-04T16:39:56.271Z,31.38
2023-02-04T16:42:22.962Z,26.33
2023-02-04T16:44:49.656Z,36.28
2023-02-04T16:47:16.426Z,36.17
2023-02-04T16:49:44.770Z,40.97
2023-02-04T16:52:11.445Z,30.48
2023-02-04T16:54:38.110Z,20.80
2023-02-04T16:57:04.783Z,24.35
2023-02-04T16:59:32.105Z,24.73
2023-02-04T17:02:00.387Z,20.45
2023-02-04T17:04:27.824Z,24.55
2023-02-04T17:06:54.754Z,29.65
2023-02-04T17:09:21.429Z,28.10
2023-02-04T17:11:48.158Z,34.45
2023-02-04T17:14:15.779Z,32.25
2023-02-04T17:16:43.453Z,37.75
2023-02-04T17:19:11.296Z,30.65
2023-02-04T17:21:39.193Z,31.33
2023-02-04T17:24:11.315Z,25.30
2023-02-04T17:26:40.194Z,37.10
2023-02-04T17:29:09.388Z,28.60
2023-02-04T17:31:36.394Z,20.15
2023-02-04T17:34:03.868Z,25.13
2023-02-04T17:36:31.321Z,26.77
2023-02-04T17:38:58.377Z,24.13
2023-02-04T17:41:25.123Z,27.40
2023-02-04T17:43:51.915Z,27.05
2023-02-04T17:46:18.662Z,22.17
2023-02-04T17:48:45.588Z,31.67
2023-02-04T17:51:12.396Z,35.53
2023-02-04T17:53:40.438Z,29.35
2023-02-04T17:56:12.105Z,33.50
2023-02-04T18:01:16.625Z,24.52
2023-02-04T18:03:43.652Z,36.88
2023-02-04T18:06:20.249Z,33.07
2023-02-04T18:08:47.144Z,29.33
2023-02-04T18:11:21.413Z,29.00
2023-02-04T18:13:48.568Z,31.95
2023-02-04T18:16:27.489Z,35.35
2023-02-04T18:19:08.396Z,26.23
2023-02-04T18:21:38.842Z,34.97
2023-02-04T18:24:18.799Z,29.25
2023-02-04T18:26:52.033Z,28.73
2023-02-04T18:29:38.399Z,29.48
2023-02-04T18:32:24.960Z,28.45
2023-02-04T18:34:54.189Z,26.27
2023-02-04T18:37:37.444Z,25.23
2023-02-04T18:40:10.315Z,24.42
2023-02-04T18:42:39.280Z,23.25
2023-02-04T18:45:24.120Z,29.52
2023-02-04T18:47:55.064Z,25.95
2023-02-04T18:50:33.557Z,22.65
2023-02-04T18:53:16.440Z,29.92
2023-02-04T18:55:51.727Z,31.02
2023-02-04T18:58:34.052Z,27.48
2023-02-04T19:01:09.885Z,24.60
2023-02-04T19:04:09.911Z,28.70
2023-02-04T19:06:39.921Z,34.65
2023-02-04T19:09:26.755Z,33.05
2023-02-04T19:11:55.896Z,36.80
2023-02-04T19:14:40.205Z,33.95
2023-02-04T19:17:25.134Z,30.55
2023-02-04T19:20:17.741Z,29.30
2023-02-04T19:22:46.647Z,24.50
2023-02-04T19:25:28.487Z,22.55
2023-02-04T19:30:29.290Z,33.53
2023-02-04T19:32:57.455Z,35.40
2023-02-04T19:35:35.397Z,40.92
2023-02-04T19:38:29.950Z,43.03
2023-02-04T19:40:56.783Z,34.97
2023-02-04T19:43:37.203Z,34.35
2023-02-04T19:46:24.800Z,42.78
2023-02-04T19:48:51.679Z,38.42
2023-02-04T19:51:28.667Z,44.58
2023-02-04T19:54:01.593Z,45.08
2023-02-04T19:56:33.852Z,43.85
2023-02-04T19:59:23.375Z,47.60
2023-02-04T20:01:59.486Z,39.78
2023-02-04T20:04:36.325Z,43.60
2023-02-04T20:07:13.098Z,42.05
2023-02-04T20:09:39.713Z,36.72
2023-02-04T20:12:17.878Z,34.35
2023-02-04T20:14:59.533Z,52.13
2023-02-04T20:17:44.008Z,61.33
2023-02-04T20:20:18.395Z,58.63
2023-02-04T20:22:47.382Z,44.45
2023-02-04T20:25:20.598Z,43.67
2023-02-04T20:27:57.066Z,41.97
2023-02-04T20:30:28.369Z,43.97
2023-02-04T20:32:57.102Z,40.58
2023-02-04T20:35:31.745Z,41.25
2023-02-04T20:38:07.291Z,39.22
2023-02-04T20:40:35.900Z,41.83
2023-02-04T20:43:06.347Z,55.22
2023-02-04T20:45:51.859Z,42.92
2023-02-04T20:48:18.668Z,44.33
2023-02-04T20:50:52.956Z,50.17
2023-02-04T20:53:39.014Z,42.83
2023-02-04T20:56:25.217Z,47.72
2023-02-04T20:58:57.457Z,46.83
2023-02-04T21:02:11.469Z,37.85
2023-02-04T21:04:46.964Z,37.38
2023-02-04T21:07:17.740Z,38.67
2023-02-04T21:09:45.054Z,38.88
2023-02-04T21:12:11.788Z,34.85
2023-02-04T21:14:38.483Z,40.10
2023-02-04T21:17:05.538Z,35.28
2023-02-04T21:19:33.802Z,35.90
2023-02-04T21:22:00.815Z,44.55
2023-02-04T21:24:28.213Z,39.20
2023-02-04T21:26:54.919Z,36.72
2023-02-04T21:29:21.570Z,38.72
2023-02-04T21:31:48.321Z,37.00
2023-02-04T21:34:15.731Z,42.42
2023-02-04T21:36:42.547Z,40.53
2023-02-04T21:39:09.224Z,38.53
2023-02-04T21:41:35.912Z,36.53
2023-02-04T21:44:02.518Z,39.85
2023-02-04T21:46:29.289Z,39.22
2023-02-04T21:48:56.335Z,39.00
2023-02-04T21:51:22.962Z,50.20
2023-02-04T21:53:49.592Z,53.95
2023-02-04T21:56:16.263Z,49.10
2023-02-04T21:58:42.904Z,45.70
2023-02-04T22:01:10.376Z,37.92
2023-02-04T22:03:37.092Z,41.28
2023-02-04T22:06:03.899Z,46.00
2023-02-04T22:08:30.564Z,43.10
2023-02-04T22:10:57.293Z,37.70
2023-02-04T22:13:24.055Z,36.40
2023-02-04T22:15:50.683Z,38.50
2023-02-04T22:18:17.354Z,34.13
2023-02-04T22:20:43.980Z,45.10
2023-02-04T22:23:10.673Z,37.20
2023-02-04T22:25:37.375Z,40.95
2023-02-04T22:28:04.191Z,48.17
2023-02-04T22:30:30.973Z,40.75
2023-02-04T22:32:59.984Z,41.63
2023-02-04T22:35:27.783Z,40.05
2023-02-04T22:37:54.499Z,36.25
2023-02-04T22:40:21.289Z,32.28
2023-02-04T22:42:47.917Z,37.63
2023-02-04T22:45:14.710Z,39.72
2023-02-04T22:47:41.497Z,35.35
2023-02-04T22:50:08.633Z,37.70
2023-02-04T22:52:35.503Z,33.22
2023-02-04T22:55:02.221Z,44.65
2023-02-04T22:57:28.834Z,36.90
2023-02-04T22:59:55.479Z,41.22
2023-02-04T23:02:22.152Z,41.22
2023-02-04T23:04:48.823Z,39.72
2023-02-04T23:07:15.540Z,47.22
2023-02-04T23:09:42.189Z,33.80
2023-02-04T23:12:14.942Z,39.33
2023-02-04T23:14:44.035Z,43.88
2023-02-04T23:17:11.320Z,39.83
2023-02-04T23:19:38.845Z,46.22
2023-02-04T23:22:06.611Z,38.10
2023-02-04T23:24:34.340Z,31.92
2023-02-04T23:27:01.641Z,45.60
2023-02-04T23:29:28.858Z,38.60
2023-02-04T23:31:56.295Z,40.17
2023-02-04T23:34:22.972Z,43.38
2023-02-04T23:36:51.211Z,43.78
2023-02-04T23:39:19.639Z,43.13
2023-02-04T23:41:49.872Z,46.35
2023-02-04T23:44:16.596Z,35.80
2023-02-04T23:46:43.250Z,36.33
2023-02-04T23:49:10.284Z,27.48
2023-02-04T23:51:36.947Z,41.42
2023-02-04T23:54:03.979Z,37.47
2023-02-04T23:56:30.643Z,32.45
2023-02-04T23:58:57.315Z,35.85
